createdAt,value
2023-04-30T00:01:36.075Z,102504.28
2023-04-30T00:04:06.536Z,102502.78
2023-04-30T00:06:37.803Z,102498.13
2023-04-30T00:09:06.386Z,102495.50
2023-04-30T00:11:35.044Z,102499.19
2023-04-30T00:14:05.225Z,102501.97
2023-04-30T00:16:33.825Z,102490.53
2023-04-30T00:19:02.231Z,102500.34
2023-04-30T00:21:30.617Z,102506.59
2023-04-30T00:24:00.466Z,102503.09
2023-04-30T00:26:28.797Z,102496.25
2023-04-30T00:28:58.729Z,102501.59
2023-04-30T00:31:28.682Z,102501.59
2023-04-30T00:33:57.635Z,102502.03
2023-04-30T00:36:26.152Z,102499.41
2023-04-30T00:38:55.710Z,102505.59
2023-04-30T00:41:24.641Z,102500.53
2023-04-30T00:43:53.109Z,102503.13
2023-04-30T00:46:22.805Z,102500.47
2023-04-30T00:48:53.095Z,102518.75
2023-04-30T00:51:22.445Z,102512.41
2023-04-30T00:53:51.374Z,102523.84
2023-04-30T00:56:20.194Z,102517.44
2023-04-30T00:58:51.474Z,102519.81
2023-04-30T01:01:19.948Z,102508.16
2023-04-30T01:03:48.399Z,102513.44
2023-04-30T01:06:17.922Z,102509.00
2023-04-30T01:08:48.969Z,102515.19
2023-04-30T01:11:29.633Z,102512.38
2023-04-30T01:14:08.629Z,102502.75
2023-04-30T01:16:44.440Z,102507.19
2023-04-30T01:19:34.123Z,102509.84
2023-04-30T01:22:06.301Z,102517.94
2023-04-30T01:25:00.713Z,102511.09
2023-04-30T01:27:40.799Z,102522.56
2023-04-30T01:30:11.574Z,102516.91
2023-04-30T01:32:39.772Z,102514.72
2023-04-30T01:35:08.646Z,102518.31
2023-04-30T01:37:47.885Z,102515.97
2023-04-30T01:40:33.188Z,102521.53
2023-04-30T01:43:14.346Z,102505.97
2023-04-30T01:45:58.379Z,102518.09
2023-04-30T01:48:41.279Z,102501.06
2023-04-30T01:51:17.404Z,102504.56
2023-04-30T01:53:47.170Z,102525.19
2023-04-30T01:56:28.372Z,102518.03
2023-04-30T01:58:56.913Z,102513.81
2023-04-30T02:01:32.070Z,102511.00
2023-04-30T02:04:01.527Z,102511.16
2023-04-30T02:06:30.296Z,102512.13
2023-04-30T02:09:03.290Z,102519.25
2023-04-30T02:11:31.823Z,102524.41
2023-04-30T02:14:01.728Z,102524.53
2023-04-30T02:16:31.870Z,102531.63
2023-04-30T02:19:00.207Z,102519.31
2023-04-30T02:21:30.146Z,102522.97
2023-04-30T02:23:58.424Z,102521.25
2023-04-30T02:26:26.638Z,102530.06
2023-04-30T02:28:54.910Z,102532.72
2023-04-30T02:31:23.162Z,102532.75
2023-04-30T02:33:52.693Z,102520.38
2023-04-30T02:36:20.941Z,102522.13
2023-04-30T02:38:49.086Z,102520.59
2023-04-30T02:41:17.261Z,102521.47
2023-04-30T02:43:45.561Z,102527.63
2023-04-30T02:46:13.823Z,102521.59
2023-04-30T02:48:41.993Z,102527.00
2023-04-30T02:51:11.774Z,102515.44
2023-04-30T02:53:39.923Z,102512.75
2023-04-30T02:56:09.196Z,102518.09
2023-04-30T02:58:37.402Z,102521.81
2023-04-30T03:01:05.695Z,102515.91
2023-04-30T03:03:34.100Z,102510.53
2023-04-30T03:06:03.545Z,102508.72
2023-04-30T03:08:33.381Z,102508.69
2023-04-30T03:11:01.989Z,102515.19
2023-04-30T03:13:30.475Z,102514.94
2023-04-30T03:16:00.620Z,102512.22
2023-04-30T03:18:32.771Z,102508.88
2023-04-30T03:21:01.082Z,102510.59
2023-04-30T03:23:29.934Z,102510.72
2023-04-30T03:25:59.679Z,102509.78
2023-04-30T03:28:27.987Z,102497.69
2023-04-30T03:30:56.243Z,102505.88
2023-04-30T03:33:24.510Z,102517.38
2023-04-30T03:35:53.467Z,102507.50
2023-04-30T03:38:21.650Z,102500.44
2023-04-30T03:40:49.974Z,102504.06
2023-04-30T03:43:19.688Z,102503.28
2023-04-30T03:45:47.929Z,102507.84
2023-04-30T03:48:16.369Z,102492.56
2023-04-30T03:50:45.260Z,102488.84
2023-04-30T03:53:13.544Z,102490.66
2023-04-30T03:55:42.250Z,102493.78
2023-04-30T03:58:10.679Z,102483.84
2023-04-30T04:00:42.717Z,102479.38
2023-04-30T04:03:10.882Z,102485.09
2023-04-30T04:05:39.056Z,102478.00
2023-04-30T04:08:07.681Z,102489.16
2023-04-30T04:10:36.431Z,102489.56
2023-04-30T04:13:06.447Z,102490.25
2023-04-30T04:15:34.912Z,102492.44
2023-04-30T04:18:06.988Z,102503.47
2023-04-30T04:20:35.332Z,102501.53
2023-04-30T04:23:03.770Z,102486.53
2023-04-30T04:25:33.446Z,102494.84
2023-04-30T04:28:04.321Z,102507.13
2023-04-30T04:30:32.480Z,102491.84
2023-04-30T04:33:01.149Z,102489.16
2023-04-30T04:35:31.151Z,102490.13
2023-04-30T04:37:59.398Z,102496.81
2023-04-30T04:40:29.885Z,102491.56
2023-04-30T04:42:59.842Z,102506.00
2023-04-30T04:45:28.669Z,102502.25
2023-04-30T04:47:57.162Z,102501.25
2023-04-30T04:50:25.516Z,102504.84
2023-04-30T04:52:55.275Z,102503.94
2023-04-30T04:55:23.521Z,102508.59
2023-04-30T04:57:51.704Z,102508.63
2023-04-30T05:00:22.109Z,102513.13
2023-04-30T05:02:50.902Z,102512.03
2023-04-30T05:05:19.172Z,102525.38
2023-04-30T05:07:47.440Z,102516.19
2023-04-30T05:10:17.212Z,102530.38
2023-04-30T05:12:45.329Z,102516.81
2023-04-30T05:15:13.699Z,102522.84
2023-04-30T05:17:42.234Z,102529.31
2023-04-30T05:20:13.639Z,102529.88
2023-04-30T05:22:41.976Z,102539.47
2023-04-30T05:25:11.242Z,102534.72
2023-04-30T05:27:40.960Z,102545.41
2023-04-30T05:30:10.760Z,102542.47
2023-04-30T05:32:39.817Z,102544.25
2023-04-30T05:35:09.570Z,102551.56
2023-04-30T05:37:45.480Z,102552.91
2023-04-30T05:40:15.010Z,102552.03
2023-04-30T05:42:45.134Z,102548.28
2023-04-30T05:45:15.924Z,102553.31
2023-04-30T05:47:44.348Z,102555.47
2023-04-30T05:50:15.008Z,102551.78
2023-04-30T05:52:43.261Z,102555.63
2023-04-30T05:55:13.885Z,102556.19
2023-04-30T05:57:46.467Z,102549.75
2023-04-30T06:00:16.124Z,102554.69
2023-04-30T06:02:44.533Z,102553.88
2023-04-30T06:05:16.373Z,102553.69
2023-04-30T06:07:44.921Z,102556.25
2023-04-30T06:10:16.236Z,102550.03
2023-04-30T06:12:49.025Z,102564.03
2023-04-30T06:15:17.930Z,102550.72
2023-04-30T06:17:51.484Z,102561.56
2023-04-30T06:20:22.567Z,102560.78
2023-04-30T06:22:53.213Z,102555.66
2023-04-30T06:25:22.152Z,102557.59
2023-04-30T06:27:54.191Z,102557.31
2023-04-30T06:30:22.666Z,102559.22
2023-04-30T06:32:50.912Z,102564.97
2023-04-30T06:35:19.059Z,102572.41
2023-04-30T06:37:50.070Z,102562.81
2023-04-30T06:40:21.529Z,102568.44
2023-04-30T06:42:54.592Z,102565.41
2023-04-30T06:45:23.073Z,102573.28
2023-04-30T06:47:52.950Z,102558.97
2023-04-30T06:50:22.243Z,102568.81
2023-04-30T06:52:50.633Z,102575.25
2023-04-30T06:55:19.002Z,102570.94
2023-04-30T06:57:47.232Z,102578.38
2023-04-30T07:00:18.496Z,102574.44
2023-04-30T07:02:48.035Z,102567.50
2023-04-30T07:05:16.526Z,102570.84
2023-04-30T07:07:44.790Z,102575.72
2023-04-30T07:10:13.525Z,102573.81
2023-04-30T07:12:42.000Z,102574.19
2023-04-30T07:15:11.408Z,102567.00
2023-04-30T07:17:41.985Z,102556.50
2023-04-30T07:20:11.879Z,102566.41
2023-04-30T07:22:40.312Z,102575.25
2023-04-30T07:25:10.087Z,102574.81
2023-04-30T07:27:38.351Z,102555.19
2023-04-30T07:30:13.152Z,102567.72
2023-04-30T07:32:45.966Z,102572.63
2023-04-30T07:35:14.783Z,102564.25
2023-04-30T07:37:43.913Z,102564.66
2023-04-30T07:40:21.966Z,102569.13
2023-04-30T07:42:56.915Z,102577.31
2023-04-30T07:45:25.293Z,102573.56
2023-04-30T07:47:55.067Z,102571.47
2023-04-30T07:50:23.468Z,102572.72
2023-04-30T07:52:51.935Z,102574.63
2023-04-30T07:55:20.241Z,102570.16
2023-04-30T07:57:48.673Z,102565.16
2023-04-30T08:00:17.654Z,102566.22
2023-04-30T08:02:48.328Z,102566.28
2023-04-30T08:05:21.351Z,102557.41
2023-04-30T08:07:49.585Z,102561.41
2023-04-30T08:10:17.814Z,102568.63
2023-04-30T08:12:47.204Z,102570.94
2023-04-30T08:15:19.248Z,102572.66
2023-04-30T08:17:47.464Z,102562.09
2023-04-30T08:20:17.167Z,102578.53
2023-04-30T08:22:45.777Z,102566.31
2023-04-30T08:25:14.367Z,102568.69
2023-04-30T08:27:42.632Z,102563.81
2023-04-30T08:30:12.585Z,102574.25
2023-04-30T08:32:41.551Z,102572.06
2023-04-30T08:35:11.232Z,102574.25
2023-04-30T08:37:43.353Z,102567.78
2023-04-30T08:40:14.152Z,102572.78
2023-04-30T08:42:52.100Z,102558.41
2023-04-30T08:45:20.968Z,102571.78
2023-04-30T08:47:58.248Z,102556.31
2023-04-30T08:50:26.785Z,102565.00
2023-04-30T08:53:00.101Z,102569.88
2023-04-30T08:55:29.909Z,102567.19
2023-04-30T08:57:58.391Z,102566.03
2023-04-30T09:00:27.902Z,102571.03
2023-04-30T09:02:56.559Z,102566.47
2023-04-30T09:05:25.397Z,102569.59
2023-04-30T09:08:03.129Z,102565.28
2023-04-30T09:10:34.738Z,102564.75
2023-04-30T09:13:05.713Z,102559.50
2023-04-30T09:15:35.979Z,102555.84
2023-04-30T09:18:13.155Z,102561.00
2023-04-30T09:20:57.347Z,102556.47
2023-04-30T09:23:26.785Z,102559.91
2023-04-30T09:25:55.006Z,102556.72
2023-04-30T09:28:26.621Z,102553.44
2023-04-30T09:30:56.772Z,102546.28
2023-04-30T09:33:24.987Z,102550.00
2023-04-30T09:35:53.137Z,102544.19
2023-04-30T09:38:30.843Z,102542.13
2023-04-30T09:41:01.502Z,102540.38
2023-04-30T09:43:30.854Z,102533.06
2023-04-30T09:46:00.664Z,102534.84
2023-04-30T09:48:29.397Z,102530.75
2023-04-30T09:50:57.694Z,102537.25
2023-04-30T09:53:29.140Z,102529.69
2023-04-30T09:56:03.056Z,102521.19
2023-04-30T09:58:37.478Z,102516.94
2023-04-30T10:01:08.056Z,102516.53
2023-04-30T10:03:36.938Z,102516.06
2023-04-30T10:06:05.612Z,102508.03
2023-04-30T10:08:41.817Z,102508.97
2023-04-30T10:11:17.267Z,102513.03
2023-04-30T10:13:52.347Z,102512.97
2023-04-30T10:16:30.479Z,102505.19
2023-04-30T10:19:04.258Z,102509.03
2023-04-30T10:21:33.934Z,102505.75
2023-04-30T10:24:07.549Z,102508.00
2023-04-30T10:26:35.871Z,102500.41
2023-04-30T10:29:04.870Z,102503.66
2023-04-30T10:31:33.783Z,102501.69
2023-04-30T10:34:15.254Z,102493.00
2023-04-30T10:36:48.651Z,102499.06
2023-04-30T10:39:22.005Z,102498.78
2023-04-30T10:41:53.261Z,102493.34
2023-04-30T10:44:24.109Z,102497.06
2023-04-30T10:47:01.648Z,102496.94
2023-04-30T10:49:30.134Z,102495.44
2023-04-30T10:52:02.096Z,102487.75
2023-04-30T10:54:34.597Z,102486.03
2023-04-30T10:57:14.158Z,102490.19
2023-04-30T10:59:47.394Z,102474.94
2023-04-30T11:02:18.231Z,102460.22
2023-04-30T11:05:18.480Z,102470.69
2023-04-30T11:07:50.776Z,102464.72
2023-04-30T11:10:23.880Z,102466.00
2023-04-30T11:12:55.547Z,102462.97
2023-04-30T11:15:27.620Z,102466.66
2023-04-30T11:17:59.834Z,102465.19
2023-04-30T11:20:28.775Z,102462.59
2023-04-30T11:23:19.727Z,102459.50
2023-04-30T11:25:55.713Z,102447.63
2023-04-30T11:28:26.773Z,102445.03
2023-04-30T11:30:56.592Z,102439.63
2023-04-30T11:33:26.839Z,102437.28
2023-04-30T11:35:56.962Z,102429.72
2023-04-30T11:38:29.084Z,102422.03
2023-04-30T11:41:00.340Z,102426.09
2023-04-30T11:43:29.994Z,102416.25
2023-04-30T11:46:12.311Z,102411.22
2023-04-30T11:48:42.257Z,102418.91
2023-04-30T11:51:18.355Z,102419.03
2023-04-30T11:53:49.257Z,102411.81
2023-04-30T11:56:25.473Z,102417.47
2023-04-30T11:58:56.052Z,102411.16
2023-04-30T12:01:28.333Z,102407.22
2023-04-30T12:03:58.109Z,102391.34
2023-04-30T12:06:28.619Z,102395.72
2023-04-30T12:08:58.432Z,102404.22
2023-04-30T12:11:29.956Z,102391.03
2023-04-30T12:14:03.283Z,102389.31
2023-04-30T12:16:42.076Z,102404.31
2023-04-30T12:19:10.591Z,102388.50
2023-04-30T12:21:40.062Z,102388.25
2023-04-30T12:24:08.250Z,102382.88
2023-04-30T12:26:39.780Z,102375.66
2023-04-30T12:29:12.595Z,102373.94
2023-04-30T12:31:43.553Z,102384.75
2023-04-30T12:34:14.968Z,102381.72
2023-04-30T12:36:43.613Z,102371.53
2023-04-30T12:39:14.056Z,102371.09
2023-04-30T12:41:47.555Z,102368.06
2023-04-30T12:44:20.545Z,102370.22
2023-04-30T12:46:49.466Z,102370.09
2023-04-30T12:49:25.993Z,102360.06
2023-04-30T12:52:00.405Z,102356.25
2023-04-30T12:54:30.329Z,102354.09
2023-04-30T12:57:03.234Z,102352.97
2023-04-30T12:59:32.075Z,102358.88
2023-04-30T13:02:11.363Z,102356.31
2023-04-30T13:04:40.337Z,102343.19
2023-04-30T13:07:08.373Z,102339.28
2023-04-30T13:09:37.485Z,102332.97
2023-04-30T13:12:09.687Z,102334.72
2023-04-30T13:14:37.811Z,102333.97
2023-04-30T13:17:07.438Z,102327.88
2023-04-30T13:19:35.562Z,102325.28
2023-04-30T13:22:03.629Z,102313.63
2023-04-30T13:24:32.440Z,102315.16
2023-04-30T13:27:00.574Z,102315.81
2023-04-30T13:29:30.340Z,102318.84
2023-04-30T13:31:58.538Z,102316.97
2023-04-30T13:34:27.287Z,102310.66
2023-04-30T13:36:55.522Z,102307.28
2023-04-30T13:39:24.363Z,102308.31
2023-04-30T13:41:54.053Z,102310.16
2023-04-30T13:44:22.261Z,102301.56
2023-04-30T13:46:51.837Z,102289.84
2023-04-30T13:49:19.875Z,102288.84
2023-04-30T13:51:47.882Z,102287.63
2023-04-30T13:54:16.670Z,102294.50
2023-04-30T13:56:45.090Z,102291.00
2023-04-30T13:59:14.234Z,102284.84
2023-04-30T14:01:43.105Z,102277.59
2023-04-30T14:04:15.198Z,102269.63
2023-04-30T14:06:43.840Z,102272.63
2023-04-30T14:09:12.410Z,102270.03
2023-04-30T14:11:41.127Z,102272.19
2023-04-30T14:14:12.580Z,102278.47
2023-04-30T14:16:40.812Z,102269.09
2023-04-30T14:19:09.618Z,102265.47
2023-04-30T14:21:51.656Z,102263.38
2023-04-30T14:24:20.286Z,102261.72
2023-04-30T14:26:48.431Z,102251.94
2023-04-30T14:29:20.381Z,102258.34
2023-04-30T14:31:50.805Z,102260.84
2023-04-30T14:34:19.745Z,102257.47
2023-04-30T14:36:48.065Z,102249.06
2023-04-30T14:39:17.711Z,102258.16
2023-04-30T14:41:46.071Z,102243.66
2023-04-30T14:44:14.337Z,102246.72
2023-04-30T14:46:43.728Z,102243.56
2023-04-30T14:49:12.682Z,102239.28
2023-04-30T14:51:40.973Z,102238.59
2023-04-30T14:54:11.897Z,102243.44
2023-04-30T14:56:41.746Z,102236.72
2023-04-30T14:59:10.099Z,102230.72
2023-04-30T15:01:38.583Z,102226.06
2023-04-30T15:04:07.534Z,102229.50
2023-04-30T15:06:38.327Z,102227.03
2023-04-30T15:09:07.697Z,102213.25
2023-04-30T15:11:36.616Z,102217.88
2023-04-30T15:14:06.359Z,102216.50
2023-04-30T15:16:35.050Z,102216.97
2023-04-30T15:19:06.365Z,102207.19
2023-04-30T15:21:34.982Z,102201.06
2023-04-30T15:24:04.583Z,102192.75
2023-04-30T15:26:32.991Z,102198.88
2023-04-30T15:29:01.518Z,102200.72
2023-04-30T15:31:32.921Z,102190.84
2023-04-30T15:34:01.255Z,102192.88
2023-04-30T15:36:31.969Z,102197.53
2023-04-30T15:39:00.421Z,102193.13
2023-04-30T15:41:33.172Z,102193.47
2023-04-30T15:44:02.850Z,102190.69
2023-04-30T15:46:33.782Z,102197.16
2023-04-30T15:49:02.152Z,102195.50
2023-04-30T15:51:31.147Z,102197.03
2023-04-30T15:54:03.254Z,102189.41
2023-04-30T15:56:31.663Z,102188.75
2023-04-30T15:59:00.671Z,102186.06
2023-04-30T16:01:29.138Z,102179.91
2023-04-30T16:04:00.610Z,102169.34
2023-04-30T16:06:32.113Z,102175.78
2023-04-30T16:09:02.136Z,102165.16
2023-04-30T16:11:32.045Z,102166.47
2023-04-30T16:14:01.517Z,102168.91
2023-04-30T16:16:30.790Z,102162.66
2023-04-30T16:19:00.530Z,102159.25
2023-04-30T16:21:30.239Z,102156.38
2023-04-30T16:23:58.540Z,102154.22
2023-04-30T16:26:26.983Z,102147.97
2023-04-30T16:28:55.558Z,102144.44
2023-04-30T16:31:24.110Z,102146.97
2023-04-30T16:33:52.930Z,102146.25
2023-04-30T16:36:22.603Z,102139.22
2023-04-30T16:38:53.715Z,102132.47
2023-04-30T16:41:22.392Z,102131.69
2023-04-30T16:43:51.569Z,102129.66
2023-04-30T16:46:20.125Z,102129.59
2023-04-30T16:48:49.489Z,102129.47
2023-04-30T16:51:17.839Z,102133.50
2023-04-30T16:53:48.557Z,102123.31
2023-04-30T16:56:16.736Z,102122.31
2023-04-30T16:58:47.762Z,102132.19
2023-04-30T17:01:16.380Z,102123.91
2023-04-30T17:03:45.009Z,102126.25
2023-04-30T17:06:14.233Z,102122.50
2023-04-30T17:08:45.456Z,102122.09
2023-04-30T17:11:19.014Z,102114.19
2023-04-30T17:13:50.252Z,102115.66
2023-04-30T17:16:22.059Z,102112.75
2023-04-30T17:18:50.595Z,102111.78
2023-04-30T17:21:19.441Z,102106.06
2023-04-30T17:23:49.765Z,102103.84
2023-04-30T17:26:20.778Z,102102.78
2023-04-30T17:28:51.647Z,102098.88
2023-04-30T17:31:34.774Z,102099.06
2023-04-30T17:34:14.416Z,102090.69
2023-04-30T17:36:44.564Z,102104.25
2023-04-30T17:39:15.350Z,102097.59
2023-04-30T17:41:45.344Z,102091.06
2023-04-30T17:44:13.722Z,102099.47
2023-04-30T17:46:42.289Z,102106.25
2023-04-30T17:49:10.562Z,102095.38
2023-04-30T17:51:38.817Z,102098.31
2023-04-30T17:54:07.046Z,102094.09
2023-04-30T17:56:35.545Z,102090.00
2023-04-30T17:59:05.483Z,102086.91
2023-04-30T18:01:33.839Z,102094.97
2023-04-30T18:04:03.722Z,102077.66
2023-04-30T18:06:33.324Z,102088.34
2023-04-30T18:09:05.274Z,102093.91
2023-04-30T18:11:33.775Z,102095.31
2023-04-30T18:14:02.087Z,102085.16
2023-04-30T18:16:32.303Z,102081.78
2023-04-30T18:19:01.046Z,102087.78
2023-04-30T18:21:33.730Z,102080.81
2023-04-30T18:24:02.104Z,102097.00
2023-04-30T18:26:32.271Z,102092.50
2023-04-30T18:29:04.758Z,102090.88
2023-04-30T18:31:38.111Z,102082.91
2023-04-30T18:34:09.192Z,102087.47
2023-04-30T18:36:40.552Z,102087.34
2023-04-30T18:39:10.642Z,102085.56
2023-04-30T18:41:38.997Z,102078.41
2023-04-30T18:44:08.016Z,102085.34
2023-04-30T18:46:37.700Z,102079.94
2023-04-30T18:49:08.147Z,102079.94
2023-04-30T18:51:37.732Z,102073.56
2023-04-30T18:54:06.233Z,102067.25
2023-04-30T18:56:34.569Z,102073.44
2023-04-30T18:59:02.967Z,102070.84
2023-04-30T19:01:32.772Z,102074.13
2023-04-30T19:04:03.455Z,102077.19
2023-04-30T19:06:33.562Z,102078.47
2023-04-30T19:09:02.230Z,102073.56
2023-04-30T19:11:30.805Z,102074.44
2023-04-30T19:14:01.462Z,102075.28
2023-04-30T19:16:30.272Z,102086.13
2023-04-30T19:19:01.410Z,102071.06
2023-04-30T19:21:32.507Z,102081.06
2023-04-30T19:24:02.550Z,102077.81
2023-04-30T19:26:35.017Z,102078.28
2023-04-30T19:29:06.570Z,102084.03
2023-04-30T19:31:35.985Z,102094.63
2023-04-30T19:34:05.159Z,102091.97
2023-04-30T19:36:35.168Z,102086.53
2023-04-30T19:39:06.040Z,102082.28
2023-04-30T19:41:35.864Z,102096.97
2023-04-30T19:44:04.348Z,102090.06
2023-04-30T19:46:33.052Z,102093.72
2023-04-30T19:49:01.706Z,102095.75
2023-04-30T19:51:30.344Z,102085.78
2023-04-30T19:54:00.292Z,102080.59
2023-04-30T19:56:29.165Z,102082.31
2023-04-30T19:58:58.308Z,102086.78
2023-04-30T20:01:27.385Z,102084.25
2023-04-30T20:03:56.428Z,102078.81
2023-04-30T20:06:25.094Z,102078.56
2023-04-30T20:08:55.846Z,102081.88
2023-04-30T20:11:25.998Z,102073.03
2023-04-30T20:13:56.522Z,102078.13
2023-04-30T20:16:25.349Z,102072.16
2023-04-30T20:18:53.667Z,102079.13
2023-04-30T20:21:24.570Z,102080.06
2023-04-30T20:23:53.141Z,102072.53
2023-04-30T20:26:21.828Z,102077.22
2023-04-30T20:28:51.592Z,102074.63
2023-04-30T20:31:20.241Z,102076.38
2023-04-30T20:33:49.955Z,102075.81
2023-04-30T20:36:18.329Z,102077.03
2023-04-30T20:38:47.801Z,102066.94
2023-04-30T20:41:17.086Z,102070.25
2023-04-30T20:43:45.729Z,102061.34
2023-04-30T20:46:17.133Z,102070.28
2023-04-30T20:48:45.656Z,102057.34
2023-04-30T20:51:16.087Z,102053.44
2023-04-30T20:53:47.048Z,102064.91
2023-04-30T20:56:16.513Z,102052.28
2023-04-30T20:58:46.478Z,102056.41
2023-04-30T21:01:16.786Z,102061.53
2023-04-30T21:03:45.379Z,102050.03
2023-04-30T21:06:15.933Z,102055.78
2023-04-30T21:08:44.734Z,102050.28
2023-04-30T21:11:14.973Z,102053.84
2023-04-30T21:13:44.161Z,102055.72
2023-04-30T21:16:12.770Z,102047.44
2023-04-30T21:18:42.992Z,102043.50
2023-04-30T21:21:14.124Z,102039.91
2023-04-30T21:23:47.310Z,102041.09
2023-04-30T21:26:16.771Z,102033.66
2023-04-30T21:28:45.265Z,102037.94
2023-04-30T21:31:13.886Z,102033.75
2023-04-30T21:33:46.064Z,102034.81
2023-04-30T21:36:16.534Z,102031.34
2023-04-30T21:38:45.479Z,102029.31
2023-04-30T21:41:17.945Z,102032.13
2023-04-30T21:43:46.411Z,102022.59
2023-04-30T21:46:14.972Z,102022.44
2023-04-30T21:48:46.143Z,102027.53
2023-04-30T21:51:17.299Z,102032.63
2023-04-30T21:53:46.612Z,102020.16
2023-04-30T21:56:16.351Z,102024.22
2023-04-30T21:58:44.758Z,102020.19
2023-04-30T22:01:13.617Z,102008.47
2023-04-30T22:03:44.625Z,102019.31
2023-04-30T22:06:13.113Z,102016.69
2023-04-30T22:08:41.569Z,102015.19
2023-04-30T22:11:09.863Z,102019.56
2023-04-30T22:13:38.533Z,102024.88
2023-04-30T22:16:07.769Z,102005.78
2023-04-30T22:18:36.123Z,102020.00
2023-04-30T22:21:07.578Z,102005.38
2023-04-30T22:23:36.649Z,102010.13
2023-04-30T22:26:09.694Z,102009.50
2023-04-30T22:28:38.369Z,102000.94
2023-04-30T22:31:06.958Z,102000.00
2023-04-30T22:33:37.047Z,101994.75
2023-04-30T22:36:07.809Z,101993.19
2023-04-30T22:38:36.296Z,102000.47
2023-04-30T22:41:05.416Z,101998.78
2023-04-30T22:43:33.846Z,102003.09
2023-04-30T22:46:04.095Z,101996.97
2023-04-30T22:48:32.504Z,102002.88
2023-04-30T22:51:00.896Z,101990.56
2023-04-30T22:53:30.593Z,101999.31
2023-04-30T22:55:58.919Z,101995.13
2023-04-30T22:58:29.830Z,101994.25
2023-04-30T23:00:58.347Z,101987.84
2023-04-30T23:03:27.121Z,101992.50
2023-04-30T23:05:55.646Z,101993.53
2023-04-30T23:08:23.941Z,101991.81
2023-04-30T23:10:55.689Z,101993.09
2023-04-30T23:13:24.130Z,101991.44
2023-04-30T23:15:52.362Z,101979.00
2023-04-30T23:18:21.502Z,101986.47
2023-04-30T23:20:49.687Z,101983.78
2023-04-30T23:23:18.157Z,101991.06
2023-04-30T23:25:47.743Z,101978.28
2023-04-30T23:28:17.847Z,101992.44
2023-04-30T23:30:46.228Z,101990.63
2023-04-30T23:33:15.200Z,101973.63
2023-04-30T23:35:43.920Z,101972.31
2023-04-30T23:38:12.174Z,101979.09
2023-04-30T23:40:42.630Z,101983.06
2023-04-30T23:43:11.955Z,101971.81
2023-04-30T23:45:45.848Z,101971.75
2023-04-30T23:48:16.437Z,101966.31
2023-04-30T23:50:44.737Z,101970.59
2023-04-30T23:53:17.116Z,101967.16
2023-04-30T23:55:45.588Z,101966.81
2023-04-30T23:58:13.916Z,101958.94
